Time;durP1;ratioP1;P1;durP2;ratioP2;P2;SDS_P1;SDS_P2;PMS_P1;PMS_P2;Temp;Humidity;BMP_temperature;BMP_pressure;BME280_temperature;BME280_humidity;BME280_pressure;Samples;Min_cycle;Max_cycle;Signal;HPM_P1;HPM_P2
2022/04/14 00:01:35;;;;;;;34.30;16.57;;;;;;;7.39;74.48;101247.00;10465648;28;20221;-67
2022/04/14 00:06:39;;;;;;;37.67;17.60;;;;;;;7.32;74.41;101246.03;10464692;28;20221;-67
2022/04/14 00:11:42;;;;;;;32.50;17.10;;;;;;;7.32;75.28;101250.31;10442339;28;20316;-66
2022/04/14 00:16:47;;;;;;;39.57;18.37;;;;;;;7.25;73.68;101248.50;10448894;28;20676;-67
2022/04/14 00:21:50;;;;;;;39.03;18.23;;;;;;;7.21;72.42;101241.53;10463121;28;20213;-68
2022/04/14 00:26:53;;;;;;;34.53;17.33;;;;;;;7.09;72.91;101231.88;10464667;28;20231;-67
2022/04/14 00:31:58;;;;;;;35.33;18.10;;;;;;;7.06;74.43;101225.78;10443001;28;20219;-67
2022/04/14 00:37:01;;;;;;;30.23;17.03;;;;;;;7.03;73.18;101236.91;10439251;28;20311;-70
2022/04/14 00:42:09;;;;;;;31.80;16.87;;;;;;;7.00;74.84;101222.25;10434180;28;20620;-69
2022/04/14 00:47:14;;;;;;;37.30;18.47;;;;;;;6.95;74.01;101225.59;10446178;28;20223;-65
2022/04/14 00:52:18;;;;;;;37.70;17.67;;;;;;;6.84;75.64;101215.06;10450207;28;20223;-69
2022/04/14 00:57:22;;;;;;;33.87;17.80;;;;;;;6.82;76.78;101211.59;10462962;28;20212;-68
2022/04/14 01:02:27;;;;;;;31.67;16.30;;;;;;;6.81;77.39;101215.03;10463007;28;20300;-65
2022/04/14 01:07:34;;;;;;;34.97;17.80;;;;;;;6.77;75.76;101218.38;10463349;28;20221;-65
2022/04/14 01:12:38;;;;;;;32.27;16.97;;;;;;;6.77;75.01;101213.22;10462575;28;20236;-69
2022/04/14 01:17:43;;;;;;;33.73;17.40;;;;;;;6.67;76.51;101208.72;10457911;28;20243;-62
2022/04/14 01:22:53;;;;;;;39.07;18.13;;;;;;;6.58;79.19;101221.44;10461427;28;20533;-66
2022/04/14 01:27:58;;;;;;;35.07;17.10;;;;;;;6.62;77.39;101212.06;10454485;28;20204;-65
2022/04/14 01:33:01;;;;;;;31.87;15.87;;;;;;;6.59;77.16;101205.09;10458447;28;20197;-65
2022/04/14 01:38:05;;;;;;;35.67;17.23;;;;;;;6.42;77.99;101209.06;10460686;28;20727;-67
2022/04/14 01:43:09;;;;;;;36.33;16.40;;;;;;;6.34;79.00;101214.91;10443906;28;20196;-66
2022/04/14 01:48:13;;;;;;;35.90;17.13;;;;;;;6.27;79.89;101218.19;10461560;28;20219;-67
2022/04/14 01:53:16;;;;;;;31.27;17.53;;;;;;;6.17;82.41;101226.56;10460512;28;20212;-62
2022/04/14 01:58:21;;;;;;;35.90;17.93;;;;;;;6.22;82.62;101222.38;10460127;28;20247;-66
2022/04/14 02:03:24;;;;;;;34.00;17.97;;;;;;;6.23;82.67;101222.41;10460868;28;20272;-66
2022/04/14 02:08:27;;;;;;;33.20;17.47;;;;;;;6.00;83.97;101220.19;10460891;28;20251;-67
2022/04/14 02:13:32;;;;;;;31.33;17.03;;;;;;;6.06;85.40;101218.59;10460596;28;20228;-67
2022/04/14 02:18:35;;;;;;;34.67;18.33;;;;;;;6.00;84.38;101223.66;10460880;28;20249;-67
2022/04/14 02:23:39;;;;;;;34.47;16.53;;;;;;;5.97;85.11;101227.88;10460263;28;20224;-68
2022/04/14 02:28:43;;;;;;;36.63;18.50;;;;;;;5.95;86.86;101224.38;10459987;28;20553;-69
2022/04/14 02:33:47;;;;;;;31.97;16.37;;;;;;;5.95;88.14;101220.09;10459688;28;20199;-68
2022/04/14 02:38:50;;;;;;;37.50;19.83;;;;;;;5.91;87.06;101215.72;10459848;28;20300;-68
2022/04/14 02:43:55;;;;;;;39.87;18.67;;;;;;;5.92;88.15;101220.00;10459796;28;20280;-68
2022/04/14 02:48:58;;;;;;;35.80;16.87;;;;;;;5.97;88.03;101212.41;10459246;28;20220;-68
2022/04/14 02:54:01;;;;;;;37.80;17.33;;;;;;;5.93;87.10;101216.63;10459248;28;20562;-68
2022/04/14 02:59:06;;;;;;;32.40;16.60;;;;;;;5.84;87.62;101214.72;10459360;28;20727;-67
2022/04/14 03:04:09;;;;;;;36.43;16.37;;;;;;;5.65;88.34;101214.22;10458896;28;20231;-69
2022/04/14 03:09:13;;;;;;;34.93;17.63;;;;;;;5.65;90.03;101216.78;10458720;28;20231;-69
2022/04/14 03:14:17;;;;;;;33.90;17.30;;;;;;;5.67;89.64;101208.28;10458548;28;20256;-68
2022/04/14 03:19:21;;;;;;;33.37;17.00;;;;;;;5.70;89.16;101212.59;10459039;28;20236;-67
2022/04/14 03:24:24;;;;;;;30.90;16.23;;;;;;;5.63;88.93;101214.19;10458517;28;20300;-69
2022/04/14 03:29:32;;;;;;;32.87;16.07;;;;;;;5.57;89.36;101208.03;10458576;28;20702;-67
2022/04/14 03:34:35;;;;;;;32.97;16.63;;;;;;;5.60;88.89;101203.81;10458238;28;20223;-68
2022/04/14 03:39:39;;;;;;;35.20;16.10;;;;;;;5.54;87.47;101195.09;10458207;28;20216;-70
2022/04/14 03:44:43;;;;;;;33.70;16.43;;;;;;;5.57;88.15;101192.56;10458320;28;20213;-68
2022/04/14 03:49:47;;;;;;;29.67;15.30;;;;;;;5.51;87.71;101185.56;10458282;28;20225;-68
2022/04/14 03:54:50;;;;;;;33.10;15.07;;;;;;;5.56;87.03;101188.25;10458178;28;20560;-71
2022/04/14 03:59:55;;;;;;;29.33;14.20;;;;;;;5.63;85.75;101184.97;10457761;28;20220;-69
2022/04/14 04:04:59;;;;;;;31.43;15.67;;;;;;;5.63;84.79;101190.13;10458136;28;20217;-67
2022/04/14 04:10:02;;;;;;;29.00;14.63;;;;;;;5.65;84.68;101188.47;10457867;28;20213;-69
2022/04/14 04:15:08;;;;;;;27.33;14.23;;;;;;;5.67;83.37;101179.06;10457692;28;20230;-68
2022/04/14 04:20:12;;;;;;;33.80;15.07;;;;;;;5.65;83.24;101175.59;10459900;28;20228;-69
2022/04/14 04:25:15;;;;;;;25.77;14.33;;;;;;;5.73;83.58;101182.66;10465046;28;20213;-68
2022/04/14 04:30:20;;;;;;;27.07;14.50;;;;;;;5.84;83.27;101172.63;10464817;28;20713;-68
2022/04/14 04:35:23;;;;;;;30.03;14.43;;;;;;;5.88;83.09;101173.56;10464598;28;20245;-68
2022/04/14 04:40:26;;;;;;;28.97;13.67;;;;;;;5.92;82.15;101163.34;10464254;28;20676;-69
2022/04/14 04:45:31;;;;;;;36.60;14.27;;;;;;;6.04;82.40;101163.59;10463987;28;20243;-71
2022/04/14 04:50:34;;;;;;;30.67;14.00;;;;;;;6.10;82.50;101160.28;10463915;28;20213;-69
2022/04/14 04:55:38;;;;;;;29.47;14.67;;;;;;;6.17;82.39;101150.16;10463848;28;20244;-68
2022/04/14 05:00:44;;;;;;;31.70;15.67;;;;;;;6.19;83.51;101153.63;10463564;28;20220;-67
2022/04/14 05:05:48;;;;;;;27.80;14.67;;;;;;;6.25;81.52;101158.88;10463242;28;20213;-70
2022/04/14 05:10:51;;;;;;;45.77;17.47;;;;;;;6.29;80.26;101160.69;10463054;28;20307;-67
2022/04/14 05:15:56;;;;;;;32.57;15.33;;;;;;;6.34;79.87;101161.66;10462610;28;20317;-68
2022/04/14 05:20:59;;;;;;;33.37;16.27;;;;;;;6.38;79.51;101167.75;10462754;28;20223;-68
2022/04/14 05:26:02;;;;;;;31.17;14.87;;;;;;;6.41;80.36;101158.34;10462711;28;20231;-68
2022/04/14 05:31:10;;;;;;;35.03;15.77;;;;;;;6.50;79.71;101148.22;10462018;28;20225;-68
2022/04/14 05:36:13;;;;;;;47.43;15.83;;;;;;;6.58;79.16;101151.81;10462066;28;20221;-68
2022/04/14 05:41:17;;;;;;;41.77;16.33;;;;;;;6.66;79.44;101142.50;10460893;28;20285;-69
2022/04/14 05:46:21;;;;;;;34.10;15.77;;;;;;;6.79;78.66;101147.03;10460734;28;20295;-69
2022/04/14 05:51:25;;;;;;;29.37;15.33;;;;;;;6.86;77.47;101138.56;10490131;28;20216;-68
2022/04/14 05:56:28;;;;;;;30.47;13.60;;;;;;;7.00;75.91;101141.38;10477262;28;20564;-67
2022/04/14 06:01:33;;;;;;;36.27;14.47;;;;;;;7.15;74.84;101148.50;10460081;28;20216;-68
2022/04/14 06:06:37;;;;;;;29.43;14.17;;;;;;;7.29;73.89;101147.00;10460490;28;20305;-68
2022/04/14 06:11:40;;;;;;;27.90;14.77;;;;;;;7.43;73.00;101153.25;10460410;28;20252;-70
2022/04/14 06:16:47;;;;;;;27.03;14.27;;;;;;;7.58;73.04;101145.72;10460121;28;20220;-69
2022/04/14 06:21:51;;;;;;;28.63;13.77;;;;;;;7.75;72.08;101145.13;10460367;28;20226;-70
2022/04/14 06:26:56;;;;;;;29.43;13.97;;;;;;;7.91;71.88;101138.44;10459789;28;20220;-69
2022/04/14 06:32:01;;;;;;;22.67;12.93;;;;;;;8.13;71.63;101133.56;10460241;28;20240;-68
2022/04/14 06:37:05;;;;;;;26.57;13.17;;;;;;;8.31;71.58;101120.00;10459405;28;20231;-69
2022/04/14 06:42:08;;;;;;;25.77;12.43;;;;;;;8.57;70.28;101117.69;10458985;28;20216;-70
2022/04/14 06:47:13;;;;;;;28.87;11.87;;;;;;;8.77;69.33;101114.44;10459295;28;20559;-68
2022/04/14 06:52:17;;;;;;;23.30;11.53;;;;;;;8.96;68.23;101099.94;10459322;28;20216;-67
2022/04/14 06:57:20;;;;;;;21.53;10.80;;;;;;;9.16;67.30;101098.41;10458786;28;20656;-66
2022/04/14 07:02:25;;;;;;;25.37;12.00;;;;;;;9.38;66.65;101083.84;10458795;28;20724;-66
2022/04/14 07:07:28;;;;;;;21.83;11.00;;;;;;;9.60;65.35;101085.69;10458632;28;20217;-67
2022/04/14 07:12:32;;;;;;;21.03;10.43;;;;;;;9.86;65.30;101094.47;10458567;28;20236;-67
2022/04/14 07:17:37;;;;;;;19.57;10.40;;;;;;;10.04;64.25;101086.78;10458490;28;20225;-67
2022/04/14 07:22:44;;;;;;;24.33;9.00;;;;;;;10.23;64.38;101067.88;10458438;28;20226;-67
2022/04/14 07:27:47;;;;;;;21.47;9.03;;;;;;;10.43;61.99;101064.44;10458107;28;20240;-65
2022/04/14 07:32:52;;;;;;;21.50;10.33;;;;;;;10.65;61.95;101056.69;10458078;28;20227;-67
2022/04/14 07:37:56;;;;;;;17.10;9.97;;;;;;;10.83;61.09;101054.97;10458316;28;20234;-67
2022/04/14 07:42:59;;;;;;;22.33;9.63;;;;;;;11.02;60.26;101063.63;10458040;28;20232;-65
2022/04/14 07:48:05;;;;;;;20.17;9.30;;;;;;;11.23;60.78;101053.19;10458245;28;20242;-64
2022/04/14 07:53:09;;;;;;;20.37;10.07;;;;;;;11.41;60.38;101046.22;10458216;28;20216;-65
2022/04/14 07:58:12;;;;;;;23.93;8.67;;;;;;;11.62;59.00;101046.16;10465096;28;20660;-66
2022/04/14 08:03:17;;;;;;;17.67;8.93;;;;;;;11.83;57.58;101049.59;10465502;28;20286;-65
2022/04/14 08:08:22;;;;;;;22.07;8.73;;;;;;;11.98;57.36;101050.38;10465459;28;20242;-66
2022/04/14 08:13:27;;;;;;;17.73;7.07;;;;;;;12.18;57.23;101042.47;10465198;28;20228;-66
2022/04/14 08:18:33;;;;;;;16.00;7.43;;;;;;;12.33;56.25;101035.44;10464937;28;20312;-66
2022/04/14 08:23:39;;;;;;;15.37;7.27;;;;;;;12.52;56.30;101039.66;10465070;28;20226;-65
2022/04/14 08:28:43;;;;;;;19.73;7.70;;;;;;;12.78;54.91;101023.81;10464427;28;20555;-66
2022/04/14 08:33:50;;;;;;;20.13;7.83;;;;;;;12.93;53.20;101018.47;10464480;28;20601;-66
2022/04/14 08:38:54;;;;;;;16.43;7.53;;;;;;;13.08;52.38;101020.13;10464037;28;20256;-66
2022/04/14 08:44:01;;;;;;;18.95;8.93;;;;;;;13.30;55.12;101012.06;10461882;28;20444;-66
2022/04/14 08:49:07;;;;;;;17.90;10.23;;;;;;;13.69;54.32;101015.94;10463673;28;20224;-67
2022/04/14 08:54:13;;;;;;;14.23;7.80;;;;;;;13.88;52.89;101013.09;10464527;28;20209;-64
2022/04/14 08:59:19;;;;;;;14.70;6.87;;;;;;;14.06;52.32;101006.75;10463476;28;20232;-64
2022/04/14 09:04:23;;;;;;;14.03;6.57;;;;;;;14.23;51.40;101006.50;10463655;28;20212;-65
2022/04/14 09:09:26;;;;;;;16.43;7.57;;;;;;;14.60;49.86;100997.28;10462927;28;20223;-64
2022/04/14 09:14:31;;;;;;;14.30;6.30;;;;;;;14.93;50.37;100994.06;10462692;28;20734;-65
2022/04/14 09:19:37;;;;;;;11.37;5.20;;;;;;;15.20;46.74;100983.13;10462485;28;20723;-65
2022/04/14 09:24:41;;;;;;;12.13;5.93;;;;;;;15.65;47.20;100981.38;10462596;28;20302;-63
2022/04/14 09:29:48;;;;;;;15.10;5.33;;;;;;;16.08;46.44;100985.63;10462083;28;20751;-65
2022/04/14 09:34:52;;;;;;;13.30;5.07;;;;;;;17.10;41.41;100963.06;10462154;28;20217;-64
2022/04/14 09:40:01;;;;;;;9.47;4.00;;;;;;;17.85;38.49;100963.50;10461784;28;20316;-64
2022/04/14 09:45:18;;;;;;;7.83;3.40;;;;;;;18.51;39.19;100946.56;10461988;28;20248;-64
2022/04/14 09:50:40;;;;;;;7.47;4.00;;;;;;;19.32;38.54;100931.44;10461279;28;20303;-64
2022/04/14 09:55:57;;;;;;;10.00;3.93;;;;;;;19.94;37.19;100915.84;10461186;28;20213;-62
2022/04/14 10:01:00;;;;;;;18.13;9.27;;;;;;;20.48;34.11;100916.25;10460700;28;20246;-67
2022/04/14 10:06:08;;;;;;;9.20;3.97;;;;;;;21.07;34.98;100902.34;10460943;28;20295;-63
2022/04/14 10:11:11;;;;;;;7.67;3.27;;;;;;;21.36;31.65;100896.59;10460634;28;20217;-67
2022/04/14 10:16:18;;;;;;;10.53;3.40;;;;;;;21.74;31.57;100899.16;10460131;28;20213;-64
2022/04/14 10:21:23;;;;;;;7.37;2.97;;;;;;;21.99;31.83;100890.09;10459648;28;20242;-63
2022/04/14 10:26:27;;;;;;;8.70;3.63;;;;;;;22.48;28.88;100892.03;10460527;28;20536;-62
2022/04/14 10:31:32;;;;;;;6.33;2.80;;;;;;;22.63;28.75;100886.00;10459571;28;20221;-65
2022/04/14 10:36:40;;;;;;;8.80;3.00;;;;;;;23.40;30.01;100873.97;10460059;28;20225;-63
2022/04/14 10:41:48;;;;;;;8.47;3.23;;;;;;;23.69;28.46;100866.09;10459215;28;20225;-63
2022/04/14 10:46:52;;;;;;;9.30;3.07;;;;;;;23.94;29.21;100858.50;10459391;28;20623;-63
2022/04/14 10:52:23;;;;;;;11.75;3.75;;;;;;;24.02;31.09;100864.22;10458878;28;20221;-63
2022/04/14 10:57:36;;;;;;;6.93;2.83;;;;;;;24.51;28.94;100848.09;10458908;28;20328;-61
2022/04/14 11:03:08;;;;;;;7.03;3.00;;;;;;;24.63;26.89;100847.34;10458606;28;20212;-63
2022/04/14 11:08:24;;;;;;;9.47;4.23;;;;;;;24.98;26.05;100836.34;10458724;28;20216;-62
2022/04/14 11:14:06;;;;;;;10.95;2.90;;;;;;;25.54;27.95;100823.97;10458105;28;20242;-62
2022/04/14 11:19:25;;;;;;;6.88;2.88;;;;;;;26.07;24.40;100821.34;10458198;28;20539;-62
2022/04/14 11:24:41;;;;;;;6.43;3.00;;;;;;;25.53;24.85;100815.16;10458411;28;20193;-62
2022/04/14 11:29:51;;;;;;;6.65;2.72;;;;;;;25.81;24.43;100806.22;10462091;28;20653;-62
2022/04/14 11:35:07;;;;;;;;;;;;;;;25.75;25.41;100803.94;10467539;28;20216;-63
2022/04/14 11:40:12;;;;;;;;;;;;;;;26.29;26.35;100787.00;10466559;28;20246;-65
2022/04/14 11:45:21;;;;;;;;;;;;;;;27.30;25.48;100770.03;10466899;28;19924;-64
2022/04/14 11:50:24;;;;;;;;;;;;;;;27.25;22.87;100771.28;10466471;28;19921;-64
2022/04/14 11:55:35;;;;;;;;;;;;;;;27.72;24.48;100759.84;10466562;28;20259;-64
2022/04/14 12:00:42;;;;;;;;;;;;;;;28.80;24.82;100753.25;10466617;28;19920;-63
2022/04/14 12:05:49;;;;;;;;;;;;;;;28.30;21.05;100749.19;10466099;28;19920;-63
2022/04/14 12:10:54;;;;;;;;;;;;;;;27.94;22.54;100735.97;10465679;28;19931;-63
2022/04/14 12:16:01;;;;;;;;;;;;;;;28.25;22.17;100738.81;10465416;28;19924;-64
2022/04/14 12:21:06;;;;;;;;;;;;;;;28.19;23.91;100723.28;10464832;28;19929;-64
2022/04/14 12:26:10;;;;;;;;;;;;;;;28.01;21.11;100726.53;10465549;28;19978;-67
2022/04/14 12:31:16;;;;;;;;;;;;;;;27.27;21.73;100724.91;10464708;28;19931;-67
2022/04/14 12:36:32;;;;;;;;;;;;;;;26.81;22.36;100710.56;10464790;28;19969;-67
2022/04/14 12:41:37;;;;;;;;;;;;;;;26.63;22.72;100711.81;10463304;28;19920;-68
2022/04/14 12:46:41;;;;;;;;;;;;;;;26.47;24.51;100707.69;10464717;28;19921;-67
2022/04/14 12:51:45;;;;;;;;;;;;;;;26.57;22.94;100708.75;10463987;28;19920;-68
2022/04/14 12:57:00;;;;;;;;;;;;;;;27.19;23.34;100691.78;10463849;28;19920;-65
2022/04/14 13:02:07;;;;;;;;;;;;;;;28.46;23.49;100682.88;10463715;28;19929;-63
2022/04/14 13:07:12;;;;;;;;;;;;;;;28.33;21.66;100676.81;10464297;28;19920;-64
2022/04/14 13:12:37;;;;;;;;;;;;;;;27.88;22.82;100672.34;10463379;28;20408;-64
2022/04/14 13:17:42;;;;;;;;;;;;;;;27.61;24.08;100667.28;10463541;28;19933;-63
2022/04/14 13:22:47;;;;;;;;;;;;;;;26.84;22.26;100669.50;10463368;28;19967;-64
2022/04/14 13:27:52;;;;;;;;;;;;;;;26.49;22.14;100671.97;10463798;28;19921;-64
2022/04/14 13:32:55;;;;;;;;;;;;;;;26.18;22.73;100667.09;10462452;28;19921;-63
2022/04/14 13:37:58;;;;;;;;;;;;;;;25.75;26.50;100663.00;10462488;28;19928;-64
2022/04/14 13:43:03;;;;;;;;;;;;;;;25.34;26.43;100665.72;10461748;28;20400;-62
2022/04/14 13:48:06;;;;;;;;;;;;;;;24.70;24.63;100650.44;10462098;28;19921;-67
2022/04/14 13:53:10;;;;;;;;;;;;;;;24.80;26.30;100650.69;10461336;28;19945;-63
2022/04/14 13:58:15;;;;;;;;;;;;;;;25.00;26.81;100643.19;10461178;28;19921;-67
2022/04/14 14:03:20;;;;;;;;;;;;;;;24.99;26.43;100643.25;10458421;28;19929;-69
2022/04/14 14:08:24;;;;;;;;;;;;;;;25.11;25.90;100643.31;10460211;28;20252;-69
2022/04/14 14:13:29;;;;;;;12.70;4.40;;;;;;;24.88;26.67;100643.13;10460472;28;20660;-64
2022/04/14 14:18:32;;;;;;;;;;;;;;;24.78;26.13;100637.53;10460193;28;20365;-75
2022/04/14 14:23:36;;;;;;;9.82;4.70;;;;;;;24.50;27.86;100634.03;10460441;28;20379;-64
2022/04/14 14:28:40;;;;;;;9.05;4.70;;;;;;;24.87;27.69;100636.94;10459634;28;20247;-65
2022/04/14 14:33:44;;;;;;;9.32;4.05;;;;;;;25.10;27.19;100625.69;10460283;28;20229;-64
2022/04/14 14:38:47;;;;;;;10.40;4.70;;;;;;;25.35;27.56;100627.56;10459710;28;20226;-64
2022/04/14 14:43:53;;;;;;;7.22;4.10;;;;;;;25.29;27.76;100621.81;10459635;28;20240;-63
2022/04/14 14:48:57;;;;;;;12.85;5.20;;;;;;;25.63;28.15;100619.47;10459160;28;20734;-65
2022/04/14 14:54:02;;;;;;;10.27;5.45;;;;;;;25.79;28.30;100616.63;10459247;28;20713;-63
2022/04/14 14:59:16;;;;;;;8.35;4.43;;;;;;;25.75;29.43;100613.31;10459230;28;20430;-64
2022/04/14 15:04:22;;;;;;;10.65;4.70;;;;;;;25.40;28.05;100614.00;10458848;28;20243;-65
2022/04/14 15:09:25;;;;;;;7.28;3.95;;;;;;;25.21;27.95;100613.50;10458595;28;20295;-66
2022/04/14 15:14:30;;;;;;;8.20;4.85;;;;;;;24.96;29.62;100601.81;10458598;28;20282;-67
2022/04/14 15:19:33;;;;;;;10.25;4.68;;;;;;;24.66;29.41;100601.09;10458404;28;20225;-64
2022/04/14 15:24:37;;;;;;;10.30;4.30;;;;;;;24.27;31.03;100593.03;10458318;28;20216;-64
2022/04/14 15:29:41;;;;;;;9.18;4.30;;;;;;;23.91;30.46;100584.66;10458132;28;20228;-64
2022/04/14 15:34:45;;;;;;;9.70;4.57;;;;;;;23.56;31.35;100585.94;10457973;28;20238;-64
2022/04/14 15:39:48;;;;;;;9.35;4.18;;;;;;;23.31;30.74;100588.34;10458059;28;20216;-64
2022/04/14 15:44:53;;;;;;;14.85;7.07;;;;;;;23.05;30.42;100592.47;10457860;28;20252;-63
2022/04/14 15:49:57;;;;;;;12.60;4.83;;;;;;;22.93;31.40;100586.06;10457749;28;20252;-62
2022/04/14 15:55:00;;;;;;;11.30;4.67;;;;;;;22.68;31.08;100584.91;10457201;28;20274;-62
2022/04/14 16:00:06;;;;;;;10.52;4.38;;;;;;;22.60;31.43;100592.41;10457476;28;20678;-62
2022/04/14 16:05:10;;;;;;;9.70;4.67;;;;;;;22.47;33.04;100586.06;10457586;28;20217;-63
2022/04/14 16:15:36;;;;;;;6.97;3.35;;;;;;;22.07;33.07;100579.44;10458621;28;20696;-64
2022/04/14 16:20:39;;;;;;;8.63;3.67;;;;;;;21.87;33.83;100587.56;10465436;28;20304;-62
2022/04/14 16:25:45;;;;;;;11.20;3.87;;;;;;;21.62;34.55;100582.69;10464608;28;20597;-71
2022/04/14 16:30:50;;;;;;;11.97;4.40;;;;;;;21.43;35.45;100581.06;10464453;28;20221;-68
2022/04/14 16:35:53;;;;;;;10.30;6.00;;;;;;;21.21;34.89;100581.28;10464321;28;20217;-68
2022/04/14 16:40:57;;;;;;;8.77;4.07;;;;;;;21.03;35.98;100582.22;10446809;28;20232;-70
2022/04/14 16:46:04;;;;;;;10.43;4.03;;;;;;;20.87;36.26;100577.72;10463813;28;20303;-71
2022/04/14 16:51:08;;;;;;;12.93;4.65;;;;;;;20.63;36.79;100575.34;10463558;28;20692;-67
2022/04/14 16:56:11;;;;;;;9.03;4.40;;;;;;;20.44;37.12;100584.19;10463663;28;20221;-69
2022/04/14 17:01:16;;;;;;;29.77;4.90;;;;;;;20.26;37.35;100580.63;10463057;28;20679;-68
2022/04/14 17:06:20;;;;;;;11.20;4.10;;;;;;;20.01;38.03;100581.78;10463244;28;20231;-72
2022/04/14 17:11:23;;;;;;;30.47;16.17;;;;;;;19.76;39.03;100586.44;10462847;28;20224;-71
2022/04/14 17:16:33;;;;;;;8.07;3.90;;;;;;;19.58;38.48;100588.09;10463067;28;20285;-69
2022/04/14 17:26:58;;;;;;;9.07;4.00;;;;;;;19.06;38.89;100585.91;10462124;28;20724;-69
2022/04/14 17:32:03;;;;;;;9.67;4.37;;;;;;;18.89;38.98;100589.22;10462563;28;20221;-67
2022/04/14 17:37:09;;;;;;;11.90;3.80;;;;;;;18.77;38.89;100589.72;10462215;28;20213;-70
2022/04/14 17:42:16;;;;;;;91.27;54.53;;;;;;;18.63;38.69;100594.66;10461819;28;20224;-69
2022/04/14 17:47:21;;;;;;;10.70;4.73;;;;;;;18.47;38.56;100596.16;10461765;28;20241;-71
2022/04/14 17:52:26;;;;;;;8.17;3.73;;;;;;;18.34;38.95;100606.25;10461854;28;20300;-70
2022/04/14 17:57:31;;;;;;;8.03;3.77;;;;;;;18.18;38.55;100594.63;10461513;28;20300;-70
2022/04/14 18:02:38;;;;;;;10.13;4.57;;;;;;;18.11;38.69;100616.78;10459986;28;20240;-69
2022/04/14 18:07:42;;;;;;;7.10;3.90;;;;;;;17.95;38.84;100618.22;10460300;28;20548;-69
2022/04/14 18:12:45;;;;;;;75.47;43.07;;;;;;;17.85;39.35;100616.84;10460280;28;20676;-70
2022/04/14 18:17:51;;;;;;;11.53;5.07;;;;;;;17.68;40.15;100619.22;10460838;28;20212;-70
2022/04/14 18:22:54;;;;;;;12.87;4.30;;;;;;;17.57;40.13;100618.72;10460442;28;20747;-68
2022/04/14 18:27:57;;;;;;;10.43;4.30;;;;;;;17.36;42.06;100622.03;10459944;28;20221;-69
2022/04/14 18:33:02;;;;;;;13.70;4.57;;;;;;;17.23;42.34;100628.59;10460118;28;20235;-69
2022/04/14 18:38:06;;;;;;;9.03;3.80;;;;;;;17.03;43.53;100626.63;10459268;28;20296;-72
2022/04/14 18:43:10;;;;;;;12.03;5.80;;;;;;;16.79;44.35;100616.06;10459635;28;20231;-71
2022/04/14 18:48:15;;;;;;;13.50;5.10;;;;;;;16.63;44.67;100620.94;10459092;28;20248;-72
2022/04/14 18:53:18;;;;;;;10.57;5.17;;;;;;;16.42;46.13;100631.16;10459241;28;20308;-68
2022/04/14 18:58:22;;;;;;;14.37;6.60;;;;;;;16.45;45.16;100624.06;10459074;28;20304;-68
2022/04/14 19:03:27;;;;;;;17.37;6.63;;;;;;;16.31;45.78;100620.97;10458816;28;20220;-68
2022/04/14 19:08:30;;;;;;;15.30;6.10;;;;;;;16.31;45.90;100620.16;10107250;28;10000583;-67
2022/04/14 19:13:34;;;;;;;14.40;5.93;;;;;;;16.27;45.75;100618.50;10454966;28;20576;-68
2022/04/14 19:18:39;;;;;;;16.37;6.63;;;;;;;16.25;45.72;100620.31;10455269;28;20225;-68
2022/04/14 19:23:42;;;;;;;13.37;5.77;;;;;;;16.24;46.08;100610.75;10455283;28;20216;-69
2022/04/14 19:28:45;;;;;;;13.70;5.80;;;;;;;16.26;45.94;100620.25;10454689;28;20555;-68
2022/04/14 19:33:50;;;;;;;14.73;6.17;;;;;;;16.20;47.29;100617.84;10454842;28;20240;-68
2022/04/14 19:38:53;;;;;;;9.27;5.60;;;;;;;16.11;48.98;100618.09;10453269;28;20639;-67
2022/04/14 19:43:57;;;;;;;13.30;6.63;;;;;;;15.95;49.07;100615.03;10453961;28;20664;-68
2022/04/14 19:49:03;;;;;;;15.60;6.23;;;;;;;15.92;50.38;100616.88;10455373;28;20261;-67
2022/04/14 19:54:08;;;;;;;14.47;6.77;;;;;;;15.86;49.94;100612.66;10462963;28;20211;-67
2022/04/14 19:59:11;;;;;;;13.27;6.23;;;;;;;15.73;52.14;100611.28;10461719;28;20743;-68
2022/04/14 20:04:16;;;;;;;14.13;6.50;;;;;;;15.63;53.75;100615.06;10462231;28;20303;-70
2022/04/14 20:09:20;;;;;;;15.00;6.67;;;;;;;15.56;54.24;100610.91;10462081;28;20204;-69
2022/04/14 20:14:23;;;;;;;15.13;6.30;;;;;;;15.49;54.33;100614.56;10461819;28;20323;-69
2022/04/14 20:19:28;;;;;;;15.27;7.17;;;;;;;15.36;54.27;100604.44;10462151;28;20204;-70
2022/04/14 20:24:32;;;;;;;17.10;8.87;;;;;;;15.36;53.05;100604.44;10456674;28;20637;-71
2022/04/14 20:29:35;;;;;;;20.57;8.83;;;;;;;15.39;50.75;100593.88;10461064;28;20307;-71
2022/04/14 20:34:40;;;;;;;20.23;9.00;;;;;;;15.42;50.07;100599.94;10461438;28;20552;-66
2022/04/14 20:39:44;;;;;;;18.93;9.13;;;;;;;15.48;50.09;100596.28;10460934;28;20571;-68
2022/04/14 20:44:49;;;;;;;19.70;9.37;;;;;;;15.40;51.93;100593.00;10460908;28;20271;-69
2022/04/14 20:49:55;;;;;;;16.10;8.60;;;;;;;15.28;53.95;100588.91;10460518;28;20320;-70
2022/04/14 20:55:00;;;;;;;19.70;8.50;;;;;;;15.13;55.05;100581.47;10460441;28;20216;-69
2022/04/14 21:00:05;;;;;;;23.80;10.70;;;;;;;15.04;55.30;100585.19;10460358;28;20221;-67
2022/04/14 21:05:10;;;;;;;26.80;12.30;;;;;;;15.05;53.27;100580.78;10458758;28;20304;-67
2022/04/14 21:10:13;;;;;;;22.73;11.57;;;;;;;15.12;53.25;100584.13;10459366;28;20213;-68
2022/04/14 21:15:17;;;;;;;19.90;11.17;;;;;;;15.00;55.93;100578.28;10459567;28;20347;-72
2022/04/14 21:20:21;;;;;;;33.90;19.03;;;;;;;14.96;56.62;100578.41;10458882;28;20292;-64
2022/04/14 21:25:25;;;;;;;24.60;12.53;;;;;;;14.87;58.74;100576.03;10417812;28;20227;-69
2022/04/14 21:30:28;;;;;;;24.83;11.47;;;;;;;14.85;58.03;100580.41;10424554;28;20304;-68
2022/04/14 21:35:33;;;;;;;21.80;12.40;;;;;;;14.84;55.92;100570.88;10458746;28;20586;-70
2022/04/14 21:40:38;;;;;;;25.47;12.37;;;;;;;14.74;55.92;100575.44;10458980;28;20652;-66
2022/04/14 21:45:42;;;;;;;22.10;10.90;;;;;;;14.72;57.18;100563.31;10458456;28;20772;-67
2022/04/14 21:50:47;;;;;;;21.10;12.73;;;;;;;14.63;56.26;100569.59;10458282;28;20219;-68
2022/04/14 21:55:51;;;;;;;37.77;21.90;;;;;;;14.68;54.80;100559.06;10458478;28;20225;-70
2022/04/14 22:06:27;;;;;;;22.57;12.63;;;;;;;14.69;55.14;100560.75;10433072;28;20325;-66
2022/04/14 22:11:31;;;;;;;29.17;14.10;;;;;;;14.58;55.45;100554.94;10457327;28;20795;-68
2022/04/14 22:16:34;;;;;;;26.27;12.73;;;;;;;14.51;55.49;100555.97;10457263;28;20233;-67
2022/04/14 22:21:39;;;;;;;36.53;14.60;;;;;;;14.48;56.14;100559.50;10457460;28;20243;-66
2022/04/14 22:26:42;;;;;;;28.97;14.97;;;;;;;14.43;56.16;100560.50;10456918;28;20299;-66
2022/04/14 22:31:46;;;;;;;25.43;13.87;;;;;;;14.42;55.94;100562.28;10455644;28;20227;-68
2022/04/14 22:36:50;;;;;;;33.73;18.87;;;;;;;14.44;55.21;100554.41;10456685;28;20308;-69
2022/04/14 22:41:54;;;;;;;36.80;19.20;;;;;;;14.39;56.10;100546.66;10456180;28;20232;-67
2022/04/14 22:46:57;;;;;;;33.83;16.53;;;;;;;14.34;56.27;100543.28;10456031;28;20213;-67
2022/04/14 22:52:02;;;;;;;30.80;17.07;;;;;;;14.20;57.75;100544.47;10456263;28;20327;-67
2022/04/14 22:57:05;;;;;;;38.43;18.07;;;;;;;14.24;57.06;100540.88;10455741;28;20220;-68
2022/04/14 23:02:08;;;;;;;32.00;16.47;;;;;;;14.13;58.48;100548.97;10455642;28;20238;-67
2022/04/14 23:07:19;;;;;;;36.43;18.70;;;;;;;14.13;58.18;100548.09;10451441;28;20216;-69
2022/04/14 23:12:22;;;;;;;37.93;18.53;;;;;;;13.97;60.35;100551.91;10448264;28;20335;-69
2022/04/14 23:17:26;;;;;;;26.47;15.67;;;;;;;13.96;59.41;100545.00;10439842;28;20290;-69
2022/04/14 23:22:31;;;;;;;32.57;16.63;;;;;;;13.94;59.97;100543.25;10454614;28;20219;-68
2022/04/14 23:27:34;;;;;;;27.13;15.80;;;;;;;13.88;60.22;100547.75;10454641;28;20238;-68
2022/04/14 23:32:38;;;;;;;32.23;16.60;;;;;;;13.84;61.08;100551.28;10455096;28;20224;-66
2022/04/14 23:37:44;;;;;;;34.73;16.10;;;;;;;13.80;62.75;100544.44;10454820;28;20217;-68